IBE0435 LEMD-LEBB
Flight info
| Callsign | IBE0435 |
|---|---|
| Flight time | 0h 43m |
| Altitude | 28000 |
| Route | SIE N858 DGO |
| Aircraft | A20N/M-SDE3FGHIRWY/LB1 |
Departure
| Time | 2026-05-07 10:06 |
|---|---|
| Airport | Adolfo Suárez Madrid–Barajas Airport (LEMD) |
Arrival
| Time | 2026-05-07 10:49 |
|---|---|
| Airport | Bilbao Airport (LEBB) |
| Time | Latitude | Longitude | Altitude | Speed | Heading |
|---|---|---|---|---|---|
| 2026-05-07 09:58 | 40.49051 | -3.58903 | 1982 ft | 1 kts | 358° |
| 2026-05-07 09:58 | 40.49047 | -3.58903 | 1982 ft | 0 kts | 359° |
| 2026-05-07 10:01 | 40.49057 | -3.58903 | 1984 ft | 3 kts | 359° |
| 2026-05-07 10:01 | 40.49085 | -3.58901 | 1982 ft | 5 kts | 12° |
| 2026-05-07 10:01 | 40.49121 | -3.58868 | 1982 ft | 7 kts | 38° |
| 2026-05-07 10:01 | 40.49173 | -3.58832 | 1982 ft | 10 kts | 15° |
| 2026-05-07 10:02 | 40.49235 | -3.58793 | 1981 ft | 11 kts | 58° |
| 2026-05-07 10:02 | 40.49243 | -3.58686 | 1980 ft | 13 kts | 89° |
| 2026-05-07 10:02 | 40.49243 | -3.58561 | 1982 ft | 15 kts | 90° |
| 2026-05-07 10:02 | 40.49243 | -3.58418 | 1982 ft | 16 kts | 89° |
| 2026-05-07 10:03 | 40.49245 | -3.58262 | 1980 ft | 18 kts | 89° |
| 2026-05-07 10:03 | 40.49244 | -3.58092 | 1980 ft | 19 kts | 91° |
| 2026-05-07 10:03 | 40.49245 | -3.57910 | 1980 ft | 20 kts | 89° |
| 2026-05-07 10:03 | 40.49245 | -3.57723 | 1980 ft | 19 kts | 88° |
| 2026-05-07 10:04 | 40.49264 | -3.57579 | 1981 ft | 11 kts | 69° |
| 2026-05-07 10:04 | 40.49295 | -3.57495 | 1981 ft | 11 kts | 61° |
| 2026-05-07 10:04 | 40.49329 | -3.57461 | 1981 ft | 4 kts | 11° |
| 2026-05-07 10:04 | 40.49342 | -3.57462 | 1983 ft | 0 kts | 355° |
| 2026-05-07 10:05 | 40.49526 | -3.57465 | 1982 ft | 62 kts | 360° |
| 2026-05-07 10:05 | 40.50165 | -3.57468 | 1981 ft | 121 kts | 0° |
| 2026-05-07 10:05 | 40.51174 | -3.57475 | 1987 ft | 167 kts | 360° |
| 2026-05-07 10:05 | 40.52358 | -3.57490 | 2480 ft | 171 kts | 360° |
| 2026-05-07 10:06 | 40.53582 | -3.57514 | 3025 ft | 181 kts | 360° |
| 2026-05-07 10:06 | 40.54879 | -3.57503 | 3575 ft | 191 kts | 6° |
| 2026-05-07 10:06 | 40.56219 | -3.57213 | 4137 ft | 199 kts | 14° |
| 2026-05-07 10:06 | 40.57603 | -3.56739 | 4618 ft | 213 kts | 17° |
| 2026-05-07 10:07 | 40.59098 | -3.56149 | 5011 ft | 236 kts | 19° |
| 2026-05-07 10:07 | 40.60704 | -3.55481 | 5741 ft | 244 kts | 19° |
| 2026-05-07 10:07 | 40.62322 | -3.54811 | 6614 ft | 249 kts | 18° |
| 2026-05-07 10:07 | 40.64007 | -3.54238 | 7476 ft | 253 kts | 8° |
| 2026-05-07 10:08 | 40.65777 | -3.54053 | 8361 ft | 257 kts | 4° |
| 2026-05-07 10:08 | 40.67578 | -3.53906 | 9253 ft | 261 kts | 4° |
| 2026-05-07 10:08 | 40.69224 | -3.53710 | 9998 ft | 265 kts | 13° |
| 2026-05-07 10:08 | 40.70888 | -3.52677 | 10754 ft | 267 kts | 42° |
| 2026-05-07 10:09 | 40.72093 | -3.50845 | 11433 ft | 274 kts | 57° |
| 2026-05-07 10:09 | 40.73184 | -3.48657 | 11774 ft | 297 kts | 60° |
| 2026-05-07 10:09 | 40.74203 | -3.46507 | 12036 ft | 318 kts | 59° |
| 2026-05-07 10:09 | 40.75442 | -3.43952 | 12295 ft | 341 kts | 58° |
| 2026-05-07 10:10 | 40.76793 | -3.41263 | 12712 ft | 356 kts | 57° |
| 2026-05-07 10:10 | 40.78195 | -3.38534 | 13494 ft | 361 kts | 57° |
| 2026-05-07 10:10 | 40.79627 | -3.35768 | 14214 ft | 365 kts | 57° |
| 2026-05-07 10:10 | 40.81056 | -3.33014 | 14913 ft | 369 kts | 57° |
| 2026-05-07 10:11 | 40.82522 | -3.30185 | 15634 ft | 373 kts | 57° |
| 2026-05-07 10:11 | 40.84035 | -3.27378 | 16315 ft | 377 kts | 50° |
| 2026-05-07 10:11 | 40.85303 | -3.25788 | 16757 ft | 381 kts | 37° |
| 2026-05-07 10:11 | 40.88484 | -3.23809 | 17636 ft | 385 kts | 12° |
| 2026-05-07 10:12 | 40.90242 | -3.23350 | 18078 ft | 388 kts | 9° |
| 2026-05-07 10:12 | 40.93827 | -3.22625 | 18857 ft | 393 kts | 7° |
| 2026-05-07 10:12 | 40.96539 | -3.22093 | 19415 ft | 398 kts | 8° |
| 2026-05-07 10:12 | 40.98373 | -3.21719 | 19788 ft | 400 kts | 8° |
| 2026-05-07 10:13 | 41.01187 | -3.21119 | 20350 ft | 404 kts | 8° |
| 2026-05-07 10:13 | 41.03944 | -3.20513 | 20927 ft | 408 kts | 9° |
| 2026-05-07 10:13 | 41.06769 | -3.19882 | 21474 ft | 412 kts | 9° |
| 2026-05-07 10:13 | 41.09614 | -3.19242 | 22020 ft | 416 kts | 9° |
| 2026-05-07 10:14 | 41.12491 | -3.18593 | 22570 ft | 420 kts | 9° |
| 2026-05-07 10:14 | 41.15368 | -3.17944 | 23106 ft | 424 kts | 9° |
| 2026-05-07 10:14 | 41.18298 | -3.17284 | 23631 ft | 428 kts | 9° |
| 2026-05-07 10:14 | 41.21246 | -3.16619 | 24068 ft | 431 kts | 9° |
| 2026-05-07 10:15 | 41.24197 | -3.15952 | 24522 ft | 434 kts | 8° |
| 2026-05-07 10:15 | 41.27201 | -3.15273 | 24955 ft | 437 kts | 8° |
| 2026-05-07 10:15 | 41.30219 | -3.14591 | 25375 ft | 441 kts | 8° |
| 2026-05-07 10:15 | 41.32893 | -3.13986 | 25752 ft | 443 kts | 8° |
| 2026-05-07 10:16 | 41.36006 | -3.13281 | 26180 ft | 447 kts | 8° |
| 2026-05-07 10:16 | 41.39070 | -3.12586 | 26578 ft | 450 kts | 8° |
| 2026-05-07 10:16 | 41.42167 | -3.11883 | 26984 ft | 453 kts | 8° |
| 2026-05-07 10:16 | 41.45305 | -3.11170 | 27358 ft | 456 kts | 8° |
| 2026-05-07 10:17 | 41.48415 | -3.10462 | 27738 ft | 458 kts | 8° |
| 2026-05-07 10:17 | 41.51577 | -3.09743 | 27933 ft | 461 kts | 8° |
| 2026-05-07 10:17 | 41.54742 | -3.09025 | 27950 ft | 460 kts | 8° |
| 2026-05-07 10:17 | 41.57916 | -3.08306 | 27950 ft | 460 kts | 8° |
| 2026-05-07 10:18 | 41.61044 | -3.07596 | 27949 ft | 459 kts | 8° |
| 2026-05-07 10:18 | 41.64214 | -3.06876 | 27951 ft | 459 kts | 8° |
| 2026-05-07 10:18 | 41.67375 | -3.06158 | 27949 ft | 459 kts | 8° |
| 2026-05-07 10:18 | 41.70186 | -3.05518 | 27950 ft | 459 kts | 8° |
| 2026-05-07 10:19 | 41.73346 | -3.04798 | 27950 ft | 458 kts | 8° |
| 2026-05-07 10:19 | 41.76488 | -3.04078 | 27953 ft | 458 kts | 8° |
| 2026-05-07 10:19 | 41.79596 | -3.03363 | 27956 ft | 458 kts | 8° |
| 2026-05-07 10:19 | 41.82758 | -3.02633 | 27954 ft | 457 kts | 8° |
| 2026-05-07 10:20 | 41.85876 | -3.01914 | 27954 ft | 457 kts | 8° |
| 2026-05-07 10:20 | 41.89023 | -3.01187 | 27956 ft | 457 kts | 8° |
| 2026-05-07 10:20 | 41.92162 | -3.00462 | 27958 ft | 457 kts | 8° |
| 2026-05-07 10:20 | 41.95300 | -2.99736 | 27955 ft | 456 kts | 8° |
| 2026-05-07 10:21 | 41.98403 | -2.99018 | 27956 ft | 456 kts | 8° |
| 2026-05-07 10:21 | 42.01535 | -2.98292 | 27955 ft | 456 kts | 8° |
| 2026-05-07 10:21 | 42.04632 | -2.97574 | 27955 ft | 455 kts | 8° |
| 2026-05-07 10:21 | 42.07764 | -2.96847 | 27957 ft | 455 kts | 8° |
| 2026-05-07 10:22 | 42.10904 | -2.96118 | 27956 ft | 455 kts | 8° |
| 2026-05-07 10:22 | 42.13990 | -2.95400 | 27955 ft | 454 kts | 8° |
| 2026-05-07 10:22 | 42.17110 | -2.94673 | 27958 ft | 454 kts | 8° |
| 2026-05-07 10:22 | 42.20229 | -2.93946 | 27957 ft | 454 kts | 8° |
| 2026-05-07 10:23 | 42.23292 | -2.93232 | 27960 ft | 454 kts | 8° |
| 2026-05-07 10:23 | 42.26147 | -2.92565 | 27957 ft | 453 kts | 8° |
| 2026-05-07 10:23 | 42.29216 | -2.91849 | 27962 ft | 454 kts | 8° |
| 2026-05-07 10:23 | 42.32347 | -2.91116 | 27956 ft | 453 kts | 8° |
| 2026-05-07 10:24 | 42.35156 | -2.90458 | 27961 ft | 452 kts | 8° |
| 2026-05-07 10:24 | 42.38229 | -2.89738 | 27963 ft | 452 kts | 8° |
| 2026-05-07 10:24 | 42.41334 | -2.88998 | 27958 ft | 452 kts | 11° |
| 2026-05-07 10:24 | 42.44340 | -2.87745 | 27963 ft | 453 kts | 22° |
| 2026-05-07 10:25 | 42.47119 | -2.85698 | 27963 ft | 453 kts | 34° |
| 2026-05-07 10:25 | 42.49539 | -2.83023 | 27961 ft | 452 kts | 42° |
| 2026-05-07 10:25 | 42.51890 | -2.80182 | 27959 ft | 452 kts | 41° |
| 2026-05-07 10:25 | 42.54248 | -2.77343 | 27735 ft | 453 kts | 41° |
| 2026-05-07 10:26 | 42.56576 | -2.74541 | 27228 ft | 452 kts | 41° |
| 2026-05-07 10:26 | 42.58941 | -2.71689 | 26451 ft | 455 kts | 41° |
| 2026-05-07 10:26 | 42.61316 | -2.68822 | 25811 ft | 452 kts | 41° |
| 2026-05-07 10:26 | 42.63611 | -2.66048 | 25461 ft | 441 kts | 41° |
| 2026-05-07 10:27 | 42.65881 | -2.63298 | 25203 ft | 429 kts | 41° |
| 2026-05-07 10:27 | 42.67850 | -2.60912 | 24765 ft | 425 kts | 41° |
| 2026-05-07 10:27 | 42.70086 | -2.58200 | 24121 ft | 425 kts | 41° |
| 2026-05-07 10:27 | 42.72266 | -2.55552 | 23698 ft | 419 kts | 41° |
| 2026-05-07 10:28 | 42.74447 | -2.52902 | 23097 ft | 416 kts | 41° |
| 2026-05-07 10:28 | 42.76565 | -2.50324 | 22629 ft | 410 kts | 41° |
| 2026-05-07 10:28 | 42.78704 | -2.47719 | 22004 ft | 407 kts | 41° |
| 2026-05-07 10:28 | 42.80781 | -2.45186 | 21465 ft | 403 kts | 41° |
| 2026-05-07 10:29 | 42.82875 | -2.42629 | 20867 ft | 402 kts | 41° |
| 2026-05-07 10:29 | 42.84931 | -2.40119 | 20383 ft | 397 kts | 41° |
| 2026-05-07 10:29 | 42.86976 | -2.37619 | 19842 ft | 394 kts | 41° |
| 2026-05-07 10:30 | 42.91027 | -2.32658 | 18888 ft | 386 kts | 41° |
| 2026-05-07 10:30 | 42.93043 | -2.30206 | 18307 ft | 386 kts | 38° |
| 2026-05-07 10:30 | 42.95329 | -2.28368 | 17842 ft | 377 kts | 19° |
| 2026-05-07 10:30 | 42.97879 | -2.27614 | 17240 ft | 372 kts | 0° |
| 2026-05-07 10:31 | 43.00383 | -2.28029 | 16731 ft | 364 kts | 341° |
| 2026-05-07 10:31 | 43.02615 | -2.29551 | 16250 ft | 356 kts | 321° |
| 2026-05-07 10:31 | 43.04339 | -2.31926 | 15779 ft | 349 kts | 309° |
| 2026-05-07 10:31 | 43.05907 | -2.34456 | 15246 ft | 348 kts | 309° |
| 2026-05-07 10:32 | 43.07474 | -2.36955 | 14743 ft | 347 kts | 310° |
| 2026-05-07 10:32 | 43.09053 | -2.39392 | 14248 ft | 346 kts | 310° |
| 2026-05-07 10:32 | 43.10666 | -2.41824 | 13788 ft | 343 kts | 311° |
| 2026-05-07 10:32 | 43.12285 | -2.44244 | 13279 ft | 341 kts | 311° |
| 2026-05-07 10:33 | 43.13863 | -2.46589 | 12841 ft | 336 kts | 311° |
| 2026-05-07 10:33 | 43.15154 | -2.48502 | 12393 ft | 336 kts | 311° |
| 2026-05-07 10:33 | 43.16721 | -2.50871 | 12085 ft | 329 kts | 308° |
| 2026-05-07 10:34 | 43.18040 | -2.53386 | 11563 ft | 329 kts | 300° |
| 2026-05-07 10:34 | 43.19092 | -2.56197 | 10941 ft | 332 kts | 292° |
| 2026-05-07 10:34 | 43.19779 | -2.59210 | 10305 ft | 334 kts | 277° |
| 2026-05-07 10:34 | 43.19642 | -2.62384 | 9507 ft | 341 kts | 254° |
| 2026-05-07 10:35 | 43.18579 | -2.65223 | 9276 ft | 331 kts | 232° |
| 2026-05-07 10:35 | 43.16880 | -2.67181 | 9136 ft | 321 kts | 209° |
| 2026-05-07 10:35 | 43.14875 | -2.68420 | 8982 ft | 309 kts | 207° |
| 2026-05-07 10:35 | 43.12987 | -2.69727 | 8812 ft | 298 kts | 209° |
| 2026-05-07 10:36 | 43.11187 | -2.71037 | 8657 ft | 287 kts | 209° |
| 2026-05-07 10:36 | 43.09452 | -2.72295 | 8507 ft | 277 kts | 210° |
| 2026-05-07 10:36 | 43.07769 | -2.73514 | 8345 ft | 272 kts | 210° |
| 2026-05-07 10:36 | 43.06068 | -2.74742 | 8193 ft | 278 kts | 210° |
| 2026-05-07 10:37 | 43.04364 | -2.75972 | 8054 ft | 277 kts | 209° |
| 2026-05-07 10:37 | 43.02666 | -2.77195 | 7911 ft | 276 kts | 211° |
| 2026-05-07 10:37 | 43.01227 | -2.78855 | 7749 ft | 270 kts | 236° |
| 2026-05-07 10:37 | 43.00525 | -2.81166 | 7604 ft | 268 kts | 262° |
| 2026-05-07 10:38 | 43.00691 | -2.83688 | 7456 ft | 269 kts | 289° |
| 2026-05-07 10:38 | 43.01583 | -2.85943 | 7321 ft | 271 kts | 300° |
| 2026-05-07 10:38 | 43.02581 | -2.88129 | 7159 ft | 269 kts | 301° |
| 2026-05-07 10:38 | 43.03877 | -2.89948 | 7023 ft | 273 kts | 327° |
| 2026-05-07 10:39 | 43.05599 | -2.91069 | 6865 ft | 274 kts | 334° |
| 2026-05-07 10:39 | 43.07408 | -2.91844 | 6715 ft | 274 kts | 349° |
| 2026-05-07 10:39 | 43.09318 | -2.91675 | 6567 ft | 279 kts | 17° |
| 2026-05-07 10:39 | 43.10988 | -2.90323 | 6448 ft | 283 kts | 44° |
| 2026-05-07 10:40 | 43.12044 | -2.88092 | 6275 ft | 278 kts | 71° |
| 2026-05-07 10:40 | 43.12236 | -2.85545 | 6117 ft | 270 kts | 99° |
| 2026-05-07 10:40 | 43.11736 | -2.83139 | 6025 ft | 257 kts | 109° |
| 2026-05-07 10:40 | 43.11178 | -2.80854 | 5908 ft | 249 kts | 109° |
| 2026-05-07 10:41 | 43.10641 | -2.78627 | 5754 ft | 242 kts | 110° |
| 2026-05-07 10:41 | 43.10232 | -2.76416 | 5523 ft | 243 kts | 91° |
| 2026-05-07 10:41 | 43.10593 | -2.74180 | 5214 ft | 243 kts | 60° |
| 2026-05-07 10:41 | 43.11715 | -2.72533 | 5018 ft | 237 kts | 27° |
| 2026-05-07 10:42 | 43.13183 | -2.71649 | 4982 ft | 224 kts | 17° |
| 2026-05-07 10:42 | 43.14608 | -2.70963 | 5015 ft | 213 kts | 17° |
| 2026-05-07 10:42 | 43.16008 | -2.70248 | 5023 ft | 209 kts | 19° |
| 2026-05-07 10:42 | 43.17274 | -2.69518 | 4978 ft | 193 kts | 21° |
| 2026-05-07 10:43 | 43.18465 | -2.68788 | 4881 ft | 181 kts | 21° |
| 2026-05-07 10:43 | 43.19575 | -2.68101 | 4778 ft | 170 kts | 21° |
| 2026-05-07 10:43 | 43.20667 | -2.67591 | 4598 ft | 161 kts | 357° |
| 2026-05-07 10:43 | 43.21660 | -2.68086 | 4306 ft | 152 kts | 310° |
| 2026-05-07 10:44 | 43.22161 | -2.69333 | 4143 ft | 148 kts | 291° |
| 2026-05-07 10:44 | 43.22596 | -2.70583 | 3964 ft | 140 kts | 295° |
| 2026-05-07 10:44 | 43.23053 | -2.71740 | 3744 ft | 135 kts | 296° |
| 2026-05-07 10:44 | 43.23491 | -2.72882 | 3349 ft | 138 kts | 296° |
| 2026-05-07 10:45 | 43.23920 | -2.74045 | 3038 ft | 135 kts | 294° |
| 2026-05-07 10:45 | 43.24309 | -2.75190 | 2855 ft | 127 kts | 295° |
| 2026-05-07 10:45 | 43.24733 | -2.76231 | 2723 ft | 127 kts | 297° |
| 2026-05-07 10:45 | 43.25132 | -2.77381 | 2573 ft | 138 kts | 293° |
| 2026-05-07 10:46 | 43.25509 | -2.78596 | 2224 ft | 137 kts | 294° |
| 2026-05-07 10:46 | 43.25919 | -2.79777 | 2040 ft | 135 kts | 296° |
| 2026-05-07 10:46 | 43.26329 | -2.80870 | 1798 ft | 126 kts | 297° |
| 2026-05-07 10:46 | 43.26716 | -2.81925 | 1632 ft | 123 kts | 296° |
| 2026-05-07 10:47 | 43.27118 | -2.83002 | 1538 ft | 131 kts | 297° |
| 2026-05-07 10:47 | 43.27556 | -2.84177 | 1380 ft | 140 kts | 297° |
| 2026-05-07 10:47 | 43.27994 | -2.85394 | 1097 ft | 144 kts | 297° |
| 2026-05-07 10:47 | 43.28471 | -2.86592 | 849 ft | 140 kts | 299° |
| 2026-05-07 10:48 | 43.28911 | -2.87792 | 567 ft | 141 kts | 296° |
| 2026-05-07 10:48 | 43.29346 | -2.88964 | 332 ft | 135 kts | 297° |
| 2026-05-07 10:48 | 43.29755 | -2.90121 | 148 ft | 130 kts | 297° |
| 2026-05-07 10:48 | 43.30079 | -2.90993 | 129 ft | 67 kts | 298° |
| 2026-05-07 10:49 | 43.30235 | -2.91399 | 132 ft | 35 kts | 296° |
| 2026-05-07 10:49 | 43.30346 | -2.91703 | 132 ft | 36 kts | 298° |
| 2026-05-07 10:49 | 43.30499 | -2.91959 | 129 ft | 34 kts | 323° |
| 2026-05-07 10:49 | 43.30622 | -2.91975 | 132 ft | 18 kts | 102° |
| 2026-05-07 10:50 | 43.30569 | -2.91805 | 132 ft | 20 kts | 116° |
| 2026-05-07 10:50 | 43.30503 | -2.91622 | 132 ft | 22 kts | 116° |
| 2026-05-07 10:50 | 43.30431 | -2.91423 | 132 ft | 24 kts | 118° |
| 2026-05-07 10:50 | 43.30347 | -2.91213 | 132 ft | 26 kts | 116° |
| 2026-05-07 10:51 | 43.30344 | -2.91015 | 132 ft | 20 kts | 37° |
| 2026-05-07 10:51 | 43.30411 | -2.90878 | 132 ft | 15 kts | 73° |
| 2026-05-07 10:51 | 43.30460 | -2.90823 | 132 ft | 6 kts | 26° |
| 2026-05-07 10:51 | 43.30478 | -2.90811 | 132 ft | 1 kts | 26° |
| 2026-05-07 10:52 | 43.30482 | -2.90808 | 132 ft | 0 kts | 26° |